createdAt,value
2022-09-09T00:00:20.536Z,14.40
2022-09-09T00:01:04.466Z,14.39
2022-09-09T00:01:44.617Z,14.36
2022-09-09T00:02:20.930Z,14.35
2022-09-09T00:03:03.476Z,14.36
2022-09-09T00:03:46.465Z,14.34
2022-09-09T00:04:27.139Z,14.32
2022-09-09T00:05:09.549Z,14.33
2022-09-09T00:05:48.983Z,14.30
2022-09-09T00:06:26.703Z,14.26
2022-09-09T00:07:07.367Z,14.26
2022-09-09T00:07:44.643Z,14.23
2022-09-09T00:08:21.610Z,14.23
2022-09-09T00:09:05.195Z,14.23
2022-09-09T00:09:42.314Z,14.22
2022-09-09T00:10:23.114Z,14.21
2022-09-09T00:11:03.659Z,14.19
2022-09-09T00:11:41.909Z,14.20
2022-09-09T00:12:18.406Z,14.19
2022-09-09T00:13:01.317Z,14.16
2022-09-09T00:13:42.831Z,14.16
2022-09-09T00:14:24.509Z,14.14
2022-09-09T00:15:07.129Z,14.12
2022-09-09T00:15:44.212Z,14.12
2022-09-09T00:16:20.815Z,14.11
2022-09-09T00:17:00.829Z,14.12
2022-09-09T00:17:38.748Z,14.09
2022-09-09T00:18:23.115Z,14.09
2022-09-09T00:19:06.633Z,14.07
2022-09-09T00:19:47.587Z,14.04
2022-09-09T00:20:28.030Z,14.01
2022-09-09T00:21:04.132Z,13.90
2022-09-09T00:21:38.022Z,13.92
2022-09-09T00:22:19.780Z,13.94
2022-09-09T00:23:00.327Z,13.95
2022-09-09T00:23:35.127Z,13.95
2022-09-09T00:24:20.604Z,13.96
2022-09-09T00:24:54.898Z,13.94
2022-09-09T00:25:35.341Z,13.96
2022-09-09T00:26:13.922Z,13.86
2022-09-09T00:26:52.571Z,13.86
2022-09-09T00:27:31.181Z,13.87
2022-09-09T00:28:06.250Z,13.88
2022-09-09T00:28:46.368Z,13.90
2022-09-09T00:29:29.415Z,13.88
2022-09-09T00:30:23.377Z,13.87
2022-09-09T00:30:58.393Z,13.87
2022-09-09T00:31:32.688Z,13.88
2022-09-09T00:32:17.123Z,13.88
2022-09-09T00:32:50.782Z,13.87
2022-09-09T00:33:28.015Z,13.87
2022-09-09T00:34:06.418Z,13.87
2022-09-09T00:34:44.258Z,13.85
2022-09-09T00:35:26.196Z,13.85
2022-09-09T00:35:59.860Z,13.83
2022-09-09T00:36:35.648Z,13.85
2022-09-09T00:37:13.383Z,13.85
2022-09-09T00:37:48.294Z,13.84
2022-09-09T00:38:25.574Z,13.83
2022-09-09T00:39:03.669Z,13.83
2022-09-09T00:39:39.682Z,13.83
2022-09-09T00:40:23.421Z,13.81
2022-09-09T00:41:05.489Z,13.79
2022-09-09T00:41:53.585Z,13.76
2022-09-09T00:42:27.906Z,13.75
2022-09-09T00:43:31.140Z,13.70
2022-09-09T00:44:21.986Z,13.69
2022-09-09T00:45:00.935Z,13.69
2022-09-09T00:45:56.288Z,13.69
2022-09-09T00:46:49.657Z,13.66
2022-09-09T00:47:43.749Z,13.63
2022-09-09T00:48:17.299Z,13.64
2022-09-09T00:48:59.131Z,13.67
2022-09-09T00:49:47.595Z,13.66
2022-09-09T00:50:42.801Z,13.62
2022-09-09T00:51:21.837Z,13.63
2022-09-09T00:52:05.344Z,13.63
2022-09-09T00:52:48.966Z,13.63
2022-09-09T00:53:31.539Z,13.62
2022-09-09T00:54:17.886Z,13.60
2022-09-09T00:55:04.499Z,13.57
2022-09-09T00:55:45.975Z,13.56
2022-09-09T00:56:22.769Z,13.56
2022-09-09T00:57:16.573Z,13.53
2022-09-09T00:57:52.942Z,13.52
2022-09-09T00:58:25.500Z,13.52
2022-09-09T00:59:11.674Z,13.54
2022-09-09T00:59:49.129Z,13.53
2022-09-09T01:00:24.025Z,13.53
2022-09-09T01:01:10.354Z,13.53
2022-09-09T01:01:43.077Z,13.52
2022-09-09T01:02:26.859Z,13.55
2022-09-09T01:03:14.171Z,13.54
2022-09-09T01:03:50.740Z,13.53
2022-09-09T01:04:31.933Z,13.55
2022-09-09T01:05:11.269Z,13.53
2022-09-09T01:05:52.915Z,13.52
2022-09-09T01:06:31.512Z,13.49
2022-09-09T01:07:13.421Z,13.49
2022-09-09T01:07:56.355Z,13.48
2022-09-09T01:08:51.271Z,13.45
2022-09-09T01:09:31.428Z,13.43
2022-09-09T01:10:10.988Z,13.43
2022-09-09T01:10:50.922Z,13.42
2022-09-09T01:11:30.427Z,13.44
2022-09-09T01:12:11.411Z,13.42
2022-09-09T01:12:48.289Z,13.43
2022-09-09T01:13:31.342Z,13.41
2022-09-09T01:14:20.207Z,13.39
2022-09-09T01:15:00.524Z,13.37
2022-09-09T01:15:35.446Z,13.37
2022-09-09T01:16:12.790Z,13.36
2022-09-09T01:16:49.849Z,13.36
2022-09-09T01:17:25.510Z,13.35
2022-09-09T01:18:14.091Z,13.30
2022-09-09T01:18:56.860Z,13.29
2022-09-09T01:19:37.505Z,13.27
2022-09-09T01:20:20.425Z,13.26
2022-09-09T01:21:10.327Z,13.23
2022-09-09T01:21:50.471Z,13.23
2022-09-09T01:22:36.799Z,13.22
2022-09-09T01:23:29.448Z,13.20
2022-09-09T01:24:27.033Z,13.16
2022-09-09T01:26:08.903Z,13.11
2022-09-09T01:26:45.979Z,13.09
2022-09-09T01:27:27.494Z,13.12
2022-09-09T01:28:04.345Z,13.15
2022-09-09T01:28:41.020Z,13.17
2022-09-09T01:29:19.710Z,13.17
2022-09-09T01:29:52.047Z,13.19
2022-09-09T01:30:29.028Z,13.18
2022-09-09T01:31:04.644Z,13.18
2022-09-09T01:31:53.483Z,13.16
2022-09-09T01:32:45.041Z,13.13
2022-09-09T01:33:19.556Z,13.15
2022-09-09T01:33:51.906Z,13.16
2022-09-09T01:34:29.428Z,13.17
2022-09-09T01:35:02.980Z,13.16
2022-09-09T01:35:41.496Z,13.16
2022-09-09T01:36:21.183Z,13.16
2022-09-09T01:37:05.857Z,13.15
2022-09-09T01:37:38.247Z,13.14
2022-09-09T01:38:13.460Z,13.13
2022-09-09T01:38:45.610Z,13.13
2022-09-09T01:39:18.338Z,13.14
2022-09-09T01:39:55.188Z,13.18
2022-09-09T01:40:27.742Z,13.13
2022-09-09T01:41:04.203Z,13.13
2022-09-09T01:41:49.117Z,13.08
2022-09-09T01:42:23.835Z,13.07
2022-09-09T01:42:56.562Z,13.07
2022-09-09T01:43:30.201Z,13.06
2022-09-09T01:44:06.170Z,13.05
2022-09-09T01:44:40.797Z,13.02
2022-09-09T01:45:13.298Z,13.02
2022-09-09T01:45:50.540Z,13.02
2022-09-09T01:46:23.798Z,13.00
2022-09-09T01:46:56.933Z,12.99
2022-09-09T01:47:31.703Z,13.01
2022-09-09T01:48:19.107Z,12.97
2022-09-09T01:49:10.770Z,12.94
2022-09-09T01:49:42.888Z,13.00
2022-09-09T01:50:24.482Z,12.93
2022-09-09T01:50:57.131Z,12.93
2022-09-09T01:51:32.642Z,12.92
2022-09-09T01:52:09.983Z,12.91
2022-09-09T01:52:45.304Z,12.91
2022-09-09T01:53:21.600Z,12.90
2022-09-09T01:53:56.532Z,12.92
2022-09-09T01:54:32.108Z,12.92
2022-09-09T01:55:09.210Z,12.92
2022-09-09T01:55:58.232Z,12.91
2022-09-09T01:56:42.355Z,12.89
2022-09-09T01:57:24.196Z,12.87
2022-09-09T01:58:12.910Z,12.86
2022-09-09T01:59:06.787Z,12.83
2022-09-09T01:59:50.286Z,12.81
2022-09-09T02:00:22.526Z,12.81
2022-09-09T02:01:10.407Z,12.80
2022-09-09T02:01:59.052Z,12.75
2022-09-09T02:02:37.659Z,12.71
2022-09-09T02:03:27.650Z,12.69
2022-09-09T02:04:16.479Z,12.67
2022-09-09T02:04:53.488Z,12.68
2022-09-09T02:05:37.117Z,12.70
2022-09-09T02:06:22.284Z,12.69
2022-09-09T02:07:00.657Z,12.71
2022-09-09T02:07:40.760Z,12.70
2022-09-09T02:08:24.979Z,12.69
2022-09-09T02:09:11.438Z,12.68
2022-09-09T02:09:48.691Z,12.70
2022-09-09T02:10:25.929Z,12.71
2022-09-09T02:11:17.003Z,12.68
2022-09-09T02:12:03.669Z,12.68
2022-09-09T02:12:52.016Z,12.65
2022-09-09T02:13:24.703Z,12.67
2022-09-09T02:14:02.109Z,12.69
2022-09-09T02:14:43.238Z,12.70
2022-09-09T02:15:23.418Z,12.69
2022-09-09T02:15:57.430Z,12.60
2022-09-09T02:16:38.066Z,12.64
2022-09-09T02:17:12.567Z,12.64
2022-09-09T02:18:14.444Z,12.61
2022-09-09T02:18:51.673Z,12.62
2022-09-09T02:19:33.530Z,12.62
2022-09-09T02:20:23.309Z,12.57
2022-09-09T02:21:01.095Z,12.59
2022-09-09T02:21:36.286Z,12.61
2022-09-09T02:22:11.042Z,12.62
2022-09-09T02:22:46.896Z,12.60
2022-09-09T02:23:22.171Z,12.59
2022-09-09T02:24:05.643Z,12.59
2022-09-09T02:24:41.663Z,12.59
2022-09-09T02:25:33.238Z,12.56
2022-09-09T02:26:20.721Z,12.54
2022-09-09T02:27:03.233Z,12.52
2022-09-09T02:27:36.442Z,12.49
2022-09-09T02:28:11.373Z,12.50
2022-09-09T02:28:46.460Z,12.49
2022-09-09T02:29:23.536Z,12.51
2022-09-09T02:29:59.670Z,12.50
2022-09-09T02:30:48.263Z,12.47
2022-09-09T02:31:24.022Z,12.45
2022-09-09T02:32:01.497Z,12.43
2022-09-09T02:32:41.973Z,12.43
2022-09-09T02:33:16.463Z,12.43
2022-09-09T02:33:58.603Z,12.44
2022-09-09T02:34:37.574Z,12.45
2022-09-09T02:35:13.289Z,12.45
2022-09-09T02:35:47.458Z,12.45
2022-09-09T02:36:30.569Z,12.45
2022-09-09T02:37:04.759Z,12.44
2022-09-09T02:37:40.552Z,12.43
2022-09-09T02:38:19.026Z,12.44
2022-09-09T02:39:02.484Z,12.41
2022-09-09T02:39:38.164Z,12.41
2022-09-09T02:40:16.875Z,12.42
2022-09-09T02:40:52.974Z,12.32
2022-09-09T02:41:34.243Z,12.34
2022-09-09T02:42:09.576Z,12.35
2022-09-09T02:42:42.345Z,12.35
2022-09-09T02:43:19.715Z,12.39
2022-09-09T02:43:51.880Z,12.38
2022-09-09T02:44:24.232Z,12.40
2022-09-09T02:44:59.560Z,12.40
2022-09-09T02:45:41.041Z,12.40
2022-09-09T02:46:29.964Z,12.39
2022-09-09T02:47:17.801Z,12.37
2022-09-09T02:47:58.181Z,12.37
2022-09-09T02:48:39.423Z,12.38
2022-09-09T02:49:19.782Z,12.38
2022-09-09T02:50:03.283Z,12.39
2022-09-09T02:50:46.146Z,12.40
2022-09-09T02:51:25.524Z,12.41
2022-09-09T02:52:03.790Z,12.43
2022-09-09T02:52:52.205Z,12.42
2022-09-09T02:53:31.355Z,12.41
2022-09-09T02:54:12.016Z,12.42
2022-09-09T02:54:47.334Z,12.42
2022-09-09T02:55:25.333Z,12.44
2022-09-09T02:56:05.233Z,12.43
2022-09-09T02:56:51.072Z,12.42
2022-09-09T02:57:30.433Z,12.41
2022-09-09T02:58:08.827Z,12.40
2022-09-09T02:58:41.775Z,12.41
2022-09-09T02:59:14.075Z,12.38
2022-09-09T02:59:50.503Z,12.43
2022-09-09T03:00:26.771Z,12.42
2022-09-09T03:01:02.350Z,12.40
2022-09-09T03:01:41.143Z,12.40
2022-09-09T03:02:14.161Z,12.39
2022-09-09T03:02:48.283Z,12.39
2022-09-09T03:03:23.845Z,12.38
2022-09-09T03:03:56.933Z,12.37
2022-09-09T03:04:31.050Z,12.36
2022-09-09T03:05:06.256Z,12.35
2022-09-09T03:05:38.626Z,12.34
2022-09-09T03:06:12.894Z,12.35
2022-09-09T03:06:48.607Z,12.33
2022-09-09T03:07:25.030Z,12.31
2022-09-09T03:07:58.588Z,12.30
2022-09-09T03:08:33.641Z,12.30
2022-09-09T03:09:06.760Z,12.28
2022-09-09T03:09:38.925Z,12.28
2022-09-09T03:10:14.580Z,12.28
2022-09-09T03:10:48.572Z,12.29
2022-09-09T03:11:21.247Z,12.25
2022-09-09T03:11:56.114Z,12.25
2022-09-09T03:12:31.319Z,12.24
2022-09-09T03:13:03.572Z,12.23
2022-09-09T03:13:41.704Z,12.23
2022-09-09T03:14:13.861Z,12.22
2022-09-09T03:14:47.790Z,12.21
2022-09-09T03:15:22.919Z,12.22
2022-09-09T03:15:55.095Z,12.22
2022-09-09T03:16:27.511Z,12.22
2022-09-09T03:17:03.522Z,12.20
2022-09-09T03:17:43.094Z,12.18
2022-09-09T03:18:15.531Z,12.18
2022-09-09T03:18:50.223Z,12.19
2022-09-09T03:19:22.559Z,12.19
2022-09-09T03:19:58.641Z,12.19
2022-09-09T03:20:34.344Z,12.18
2022-09-09T03:21:08.068Z,12.17
2022-09-09T03:21:40.345Z,12.17
2022-09-09T03:22:15.127Z,12.16
2022-09-09T03:22:49.517Z,12.15
2022-09-09T03:23:22.774Z,12.13
2022-09-09T03:23:58.384Z,12.13
2022-09-09T03:24:31.068Z,12.11
2022-09-09T03:25:03.825Z,12.11
2022-09-09T03:25:39.543Z,12.11
2022-09-09T03:26:12.433Z,12.09
2022-09-09T03:26:48.881Z,12.08
2022-09-09T03:27:25.586Z,12.07
2022-09-09T03:28:02.004Z,12.06
2022-09-09T03:28:34.589Z,12.05
2022-09-09T03:29:10.885Z,12.05
2022-09-09T03:29:43.066Z,12.06
2022-09-09T03:30:19.847Z,12.05
2022-09-09T03:30:54.541Z,12.05
2022-09-09T03:31:27.073Z,12.06
2022-09-09T03:31:59.293Z,12.06
2022-09-09T03:32:34.086Z,12.06
2022-09-09T03:33:06.869Z,12.05
2022-09-09T03:33:40.333Z,12.05
2022-09-09T03:34:15.763Z,12.04
2022-09-09T03:34:48.573Z,12.04
2022-09-09T03:35:21.081Z,12.04
2022-09-09T03:35:53.265Z,12.06
2022-09-09T03:36:30.319Z,12.05
2022-09-09T03:37:02.456Z,12.04
2022-09-09T03:37:34.837Z,12.05
2022-09-09T03:38:09.563Z,12.06
2022-09-09T03:38:42.590Z,12.05
2022-09-09T03:39:15.534Z,12.04
2022-09-09T03:39:51.535Z,12.04
2022-09-09T03:40:24.743Z,12.03
2022-09-09T03:40:58.594Z,12.03
2022-09-09T03:41:35.290Z,12.01
2022-09-09T03:42:08.350Z,12.01
2022-09-09T03:42:41.425Z,12.00
2022-09-09T03:43:17.720Z,12.01
2022-09-09T03:43:52.825Z,12.01
2022-09-09T03:44:25.705Z,12.00
2022-09-09T03:44:59.014Z,12.03
2022-09-09T03:45:34.203Z,12.03
2022-09-09T03:46:06.625Z,12.03
2022-09-09T03:46:39.376Z,12.03
2022-09-09T03:47:14.219Z,12.04
2022-09-09T03:47:46.474Z,12.03
2022-09-09T03:48:19.301Z,12.03
2022-09-09T03:48:54.773Z,12.03
2022-09-09T03:49:27.253Z,12.04
2022-09-09T03:50:00.453Z,12.03
2022-09-09T03:50:35.147Z,12.05
2022-09-09T03:51:07.251Z,12.03
2022-09-09T03:51:41.522Z,12.04
2022-09-09T03:52:21.649Z,12.03
2022-09-09T03:52:55.715Z,12.00
2022-09-09T03:53:28.996Z,12.00
2022-09-09T03:54:06.194Z,12.00
2022-09-09T03:54:38.603Z,12.00
2022-09-09T03:55:11.605Z,12.00
2022-09-09T03:55:47.925Z,12.00
2022-09-09T03:56:22.488Z,11.98
2022-09-09T03:56:54.758Z,11.97
2022-09-09T03:57:31.257Z,11.96
2022-09-09T03:58:03.503Z,11.95
2022-09-09T03:58:38.787Z,11.96
2022-09-09T03:59:15.785Z,11.95
2022-09-09T03:59:48.773Z,11.93
2022-09-09T04:00:21.673Z,11.94
2022-09-09T04:01:02.462Z,11.95
2022-09-09T04:01:34.962Z,11.94
2022-09-09T04:02:10.239Z,11.94
2022-09-09T04:02:42.472Z,11.93
2022-09-09T04:03:14.662Z,11.92
2022-09-09T04:03:49.849Z,11.93
2022-09-09T04:04:22.036Z,11.92
2022-09-09T04:04:54.172Z,11.92
2022-09-09T04:05:28.989Z,11.91
2022-09-09T04:06:03.184Z,11.90
2022-09-09T04:06:38.771Z,11.89
2022-09-09T04:07:11.099Z,11.87
2022-09-09T04:07:43.256Z,11.88
2022-09-09T04:08:18.003Z,11.87
2022-09-09T04:08:50.370Z,11.88
2022-09-09T04:09:22.807Z,11.89
2022-09-09T04:09:58.698Z,11.88
2022-09-09T04:10:31.141Z,11.88
2022-09-09T04:11:07.463Z,11.88
2022-09-09T04:11:43.166Z,11.88
2022-09-09T04:12:15.299Z,11.88
2022-09-09T04:12:49.630Z,11.90
2022-09-09T04:13:24.829Z,11.90
2022-09-09T04:13:59.544Z,11.92
2022-09-09T04:14:31.948Z,11.90
2022-09-09T04:15:07.167Z,11.91
2022-09-09T04:15:40.448Z,11.89
2022-09-09T04:16:14.431Z,11.90
2022-09-09T04:16:50.784Z,11.88
2022-09-09T04:17:22.929Z,11.87
2022-09-09T04:17:55.107Z,11.87
2022-09-09T04:18:31.874Z,11.86
2022-09-09T04:19:05.420Z,11.85
2022-09-09T04:19:37.552Z,11.84
2022-09-09T04:20:13.340Z,11.85
2022-09-09T04:20:47.960Z,11.84
2022-09-09T04:21:20.139Z,11.81
2022-09-09T04:21:54.827Z,11.81
2022-09-09T04:22:28.254Z,11.78
2022-09-09T04:23:00.771Z,11.77
2022-09-09T04:23:36.045Z,11.76
2022-09-09T04:24:08.847Z,11.74
2022-09-09T04:24:43.524Z,11.72
2022-09-09T04:25:20.376Z,11.69
2022-09-09T04:25:55.150Z,11.68
2022-09-09T04:26:27.474Z,11.67
2022-09-09T04:27:02.303Z,11.67
2022-09-09T04:27:34.547Z,11.67
2022-09-09T04:28:06.791Z,11.66
2022-09-09T04:28:39.415Z,11.65
2022-09-09T04:29:22.502Z,11.64
2022-09-09T04:29:54.647Z,11.63
2022-09-09T04:30:28.508Z,11.64
2022-09-09T04:31:08.762Z,11.63
2022-09-09T04:31:43.200Z,11.60
2022-09-09T04:32:18.660Z,11.62
2022-09-09T04:32:52.252Z,11.62
2022-09-09T04:33:26.347Z,11.61
2022-09-09T04:34:03.388Z,11.61
2022-09-09T04:34:35.698Z,11.60
2022-09-09T04:35:08.774Z,11.59
2022-09-09T04:35:47.594Z,11.61
2022-09-09T04:36:20.984Z,11.58
2022-09-09T04:36:54.711Z,11.59
2022-09-09T04:37:29.566Z,11.60
2022-09-09T04:38:03.697Z,11.61
2022-09-09T04:38:37.936Z,11.62
2022-09-09T04:39:13.014Z,11.63
2022-09-09T04:39:46.332Z,11.63
2022-09-09T04:40:18.673Z,11.63
2022-09-09T04:40:55.324Z,11.61
2022-09-09T04:41:27.775Z,11.64
2022-09-09T04:42:03.268Z,11.64
2022-09-09T04:42:36.467Z,11.63
2022-09-09T04:43:14.201Z,11.64
2022-09-09T04:43:49.943Z,11.64
2022-09-09T04:44:25.551Z,11.64
2022-09-09T04:44:58.206Z,11.64
2022-09-09T04:45:33.626Z,11.63
2022-09-09T04:46:06.838Z,11.63
2022-09-09T04:46:39.413Z,11.64
2022-09-09T04:47:15.511Z,11.65
2022-09-09T04:47:47.995Z,11.62
2022-09-09T04:48:20.786Z,11.61
2022-09-09T04:48:57.154Z,11.60
2022-09-09T04:49:33.471Z,11.61
2022-09-09T04:50:06.529Z,11.62
2022-09-09T04:50:41.667Z,11.65
2022-09-09T04:51:17.302Z,11.64
2022-09-09T04:51:54.035Z,11.66
2022-09-09T04:52:26.293Z,11.66
2022-09-09T04:53:01.976Z,11.68
2022-09-09T04:53:38.415Z,11.69
2022-09-09T04:54:10.999Z,11.70
2022-09-09T04:54:46.826Z,11.72
2022-09-09T04:55:21.675Z,11.74
2022-09-09T04:55:54.355Z,11.75
2022-09-09T04:56:30.449Z,11.76
2022-09-09T04:57:04.686Z,11.78
2022-09-09T04:57:36.890Z,11.78
2022-09-09T04:58:12.335Z,11.81
2022-09-09T04:58:45.431Z,11.82
2022-09-09T04:59:18.418Z,11.83
2022-09-09T04:59:59.808Z,11.84
2022-09-09T05:00:33.174Z,11.85
2022-09-09T05:01:07.394Z,11.86
2022-09-09T05:01:42.556Z,11.86
2022-09-09T05:02:15.187Z,11.88
2022-09-09T05:02:49.099Z,11.89
2022-09-09T05:03:23.885Z,11.90
2022-09-09T05:03:56.233Z,11.91
2022-09-09T05:04:30.014Z,11.93
2022-09-09T05:05:04.836Z,11.96
2022-09-09T05:05:37.775Z,11.96
2022-09-09T05:06:12.074Z,11.98
2022-09-09T05:06:46.967Z,11.99
2022-09-09T05:07:20.099Z,11.99
2022-09-09T05:07:52.454Z,12.01
2022-09-09T05:08:27.763Z,12.01
2022-09-09T05:09:00.124Z,12.01
2022-09-09T05:09:37.662Z,12.02
2022-09-09T05:10:11.135Z,12.02
2022-09-09T05:10:43.368Z,12.03
2022-09-09T05:11:17.461Z,12.05
2022-09-09T05:11:52.470Z,12.05
2022-09-09T05:12:32.997Z,12.05
2022-09-09T05:13:05.725Z,12.05
2022-09-09T05:13:41.526Z,12.06
2022-09-09T05:14:14.000Z,12.06
2022-09-09T05:14:48.894Z,12.07
2022-09-09T05:15:24.061Z,12.09
2022-09-09T05:15:56.707Z,12.09
2022-09-09T05:16:32.041Z,12.10
2022-09-09T05:17:04.958Z,12.11
2022-09-09T05:17:41.472Z,12.13
2022-09-09T05:18:13.898Z,12.13
2022-09-09T05:18:47.265Z,12.15
2022-09-09T05:19:22.771Z,12.18
2022-09-09T05:19:55.898Z,12.19
2022-09-09T05:20:31.498Z,12.20
2022-09-09T05:21:04.248Z,12.21
2022-09-09T05:21:37.157Z,12.23
2022-09-09T05:22:12.988Z,12.25
2022-09-09T05:22:53.711Z,12.27
2022-09-09T05:23:26.089Z,12.29
2022-09-09T05:24:04.214Z,12.33
2022-09-09T05:24:37.873Z,12.34
2022-09-09T05:25:10.338Z,12.37
2022-09-09T05:25:46.922Z,12.38
2022-09-09T05:26:22.298Z,12.40
2022-09-09T05:27:00.994Z,12.41
2022-09-09T05:27:38.718Z,12.45
2022-09-09T05:28:12.874Z,12.46
2022-09-09T05:28:48.080Z,12.48
2022-09-09T05:29:20.521Z,12.50
2022-09-09T05:29:53.082Z,12.52
2022-09-09T05:30:30.607Z,12.54
2022-09-09T05:31:05.995Z,12.54
2022-09-09T05:31:43.198Z,12.54
2022-09-09T05:32:20.276Z,12.53
2022-09-09T05:32:57.774Z,12.56
2022-09-09T05:33:32.668Z,12.57
2022-09-09T05:34:05.873Z,12.60
2022-09-09T05:34:38.695Z,12.63
2022-09-09T05:35:14.487Z,12.65
2022-09-09T05:35:46.933Z,12.67
2022-09-09T05:36:24.438Z,12.68
2022-09-09T05:37:00.655Z,12.72
2022-09-09T05:37:33.148Z,12.75
2022-09-09T05:38:08.312Z,12.77
2022-09-09T05:38:41.654Z,12.79
2022-09-09T05:39:14.639Z,12.81
2022-09-09T05:39:49.918Z,12.83
2022-09-09T05:40:23.274Z,12.86
2022-09-09T05:40:56.352Z,12.88
2022-09-09T05:41:32.181Z,12.91
2022-09-09T05:42:07.217Z,12.93
2022-09-09T05:42:42.855Z,12.95
2022-09-09T05:43:16.351Z,12.97
2022-09-09T05:43:49.949Z,12.99
2022-09-09T05:44:28.701Z,13.05
2022-09-09T05:45:01.147Z,13.00
2022-09-09T05:45:36.139Z,13.03
2022-09-09T05:46:13.296Z,13.06
2022-09-09T05:46:47.256Z,13.07
2022-09-09T05:47:20.048Z,13.09
2022-09-09T05:47:56.953Z,13.11
2022-09-09T05:48:30.820Z,13.13
2022-09-09T05:49:03.859Z,13.15
2022-09-09T05:49:41.088Z,13.17
2022-09-09T05:50:15.057Z,13.21
2022-09-09T05:50:54.495Z,13.25
2022-09-09T05:51:31.935Z,13.25
2022-09-09T05:52:08.088Z,13.26
2022-09-09T05:52:42.994Z,13.28
2022-09-09T05:53:15.308Z,13.29
2022-09-09T05:53:48.052Z,13.32
2022-09-09T05:54:22.770Z,13.33
2022-09-09T05:54:58.115Z,13.35
2022-09-09T05:55:30.418Z,13.37
2022-09-09T05:56:08.000Z,13.37
2022-09-09T05:56:40.902Z,13.38
2022-09-09T05:57:13.963Z,13.42
2022-09-09T05:57:53.076Z,13.45
2022-09-09T05:58:26.442Z,13.47
2022-09-09T05:59:01.239Z,13.50
2022-09-09T05:59:39.451Z,13.53
2022-09-09T06:00:14.241Z,13.54
2022-09-09T06:00:48.981Z,13.55
2022-09-09T06:01:25.534Z,13.57
2022-09-09T06:01:58.287Z,13.57
2022-09-09T06:02:42.651Z,13.59
2022-09-09T06:03:18.317Z,13.60
2022-09-09T06:03:52.716Z,13.61
2022-09-09T06:04:28.057Z,13.61
2022-09-09T06:05:00.844Z,13.61
2022-09-09T06:05:35.301Z,13.61
2022-09-09T06:06:13.120Z,13.60
2022-09-09T06:06:45.399Z,13.58
2022-09-09T06:07:24.003Z,13.58
2022-09-09T06:07:56.823Z,13.56
2022-09-09T06:08:29.979Z,13.58
2022-09-09T06:09:04.730Z,13.60
2022-09-09T06:09:40.773Z,13.61
2022-09-09T06:10:16.423Z,13.62
2022-09-09T06:10:48.647Z,13.64
2022-09-09T06:11:22.985Z,13.68
2022-09-09T06:11:59.290Z,13.69
2022-09-09T06:12:32.235Z,13.71
2022-09-09T06:13:04.765Z,13.72
2022-09-09T06:13:40.841Z,13.75
2022-09-09T06:14:13.480Z,13.77
2022-09-09T06:14:49.115Z,13.80
2022-09-09T06:15:21.677Z,13.82
2022-09-09T06:15:56.803Z,13.86
2022-09-09T06:16:33.807Z,13.85
2022-09-09T06:17:06.420Z,13.86
2022-09-09T06:17:39.993Z,13.86
2022-09-09T06:18:15.376Z,13.86
2022-09-09T06:18:50.193Z,13.85
2022-09-09T06:19:22.557Z,13.86
2022-09-09T06:19:57.519Z,13.87
2022-09-09T06:20:31.716Z,13.87
2022-09-09T06:21:05.855Z,13.87
2022-09-09T06:21:41.381Z,13.89
2022-09-09T06:22:14.835Z,13.89
2022-09-09T06:22:50.383Z,13.90
2022-09-09T06:23:22.651Z,13.91
2022-09-09T06:24:00.196Z,13.93
2022-09-09T06:24:36.279Z,13.93
2022-09-09T06:25:10.615Z,13.95
2022-09-09T06:25:43.855Z,13.94
2022-09-09T06:26:21.984Z,13.98
2022-09-09T06:26:55.309Z,14.00
2022-09-09T06:27:34.908Z,14.03
2022-09-09T06:28:07.026Z,14.05
2022-09-09T06:28:39.708Z,14.08
2022-09-09T06:29:12.460Z,14.12
2022-09-09T06:29:49.203Z,14.16
2022-09-09T06:30:22.579Z,14.18
2022-09-09T06:31:01.910Z,14.23
2022-09-09T06:31:39.578Z,14.26
2022-09-09T06:32:18.648Z,14.28
2022-09-09T06:32:52.181Z,14.38
2022-09-09T06:33:27.400Z,14.40
2022-09-09T06:34:00.158Z,14.41
2022-09-09T06:34:34.834Z,14.46
2022-09-09T06:35:08.964Z,14.49
2022-09-09T06:35:41.084Z,14.53
2022-09-09T06:36:17.678Z,14.57
2022-09-09T06:36:50.460Z,14.59
2022-09-09T06:37:25.262Z,14.63
2022-09-09T06:37:57.342Z,14.68
2022-09-09T06:38:29.661Z,14.71
2022-09-09T06:39:05.156Z,14.75
2022-09-09T06:39:38.618Z,14.77
2022-09-09T06:40:12.258Z,14.83
2022-09-09T06:40:47.218Z,14.86
2022-09-09T06:41:21.159Z,14.93
2022-09-09T06:41:56.854Z,14.93
2022-09-09T06:42:52.311Z,14.92
2022-09-09T06:43:40.730Z,14.96
2022-09-09T06:44:13.050Z,15.03
2022-09-09T06:44:50.042Z,15.13
2022-09-09T06:45:32.313Z,15.23
2022-09-09T06:46:12.508Z,15.34
2022-09-09T06:46:45.585Z,15.41
2022-09-09T06:47:17.832Z,15.48
2022-09-09T06:47:53.378Z,15.52
2022-09-09T06:48:27.100Z,15.53
2022-09-09T06:49:00.934Z,15.55
2022-09-09T06:49:36.115Z,15.57
2022-09-09T06:50:12.238Z,15.55
2022-09-09T06:50:48.226Z,15.54
2022-09-09T06:51:22.724Z,15.53
2022-09-09T06:51:55.181Z,15.51
2022-09-09T06:52:30.354Z,15.50
2022-09-09T06:53:03.366Z,15.47
2022-09-09T06:53:37.230Z,15.46
2022-09-09T06:54:12.649Z,15.48
2022-09-09T06:54:47.371Z,15.50
2022-09-09T06:55:21.857Z,15.54
2022-09-09T06:55:57.039Z,15.56
2022-09-09T06:56:31.097Z,15.61
2022-09-09T06:57:33.780Z,15.64
2022-09-09T06:58:01.310Z,15.68
2022-09-09T06:58:36.278Z,15.73
2022-09-09T06:59:10.294Z,15.74
2022-09-09T06:59:46.010Z,15.73
2022-09-09T07:00:19.371Z,15.73
2022-09-09T07:00:51.687Z,15.71
2022-09-09T07:01:31.627Z,15.72
2022-09-09T07:02:07.014Z,15.71
2022-09-09T07:02:42.502Z,15.75
2022-09-09T07:03:15.827Z,15.74
2022-09-09T07:03:51.203Z,15.74
2022-09-09T07:04:26.368Z,15.75
2022-09-09T07:04:59.782Z,15.82
2022-09-09T07:05:31.977Z,15.90
2022-09-09T07:06:06.960Z,15.97
2022-09-09T07:06:40.992Z,16.03
2022-09-09T07:07:18.892Z,16.07
2022-09-09T07:07:52.130Z,16.13
2022-09-09T07:08:25.998Z,16.19
2022-09-09T07:09:04.924Z,16.25
2022-09-09T07:09:37.468Z,16.28
2022-09-09T07:10:10.503Z,16.32
2022-09-09T07:10:46.897Z,16.35
2022-09-09T07:11:20.848Z,16.36
2022-09-09T07:11:59.985Z,16.36
2022-09-09T07:12:35.088Z,16.34
2022-09-09T07:13:08.756Z,16.34
2022-09-09T07:13:43.724Z,16.34
2022-09-09T07:14:16.609Z,16.35
2022-09-09T07:14:54.774Z,16.36
2022-09-09T07:15:27.700Z,16.34
2022-09-09T07:16:06.067Z,16.35
2022-09-09T07:16:44.123Z,16.36
2022-09-09T07:17:16.534Z,16.37
2022-09-09T07:17:49.210Z,16.40
2022-09-09T07:18:24.590Z,16.43
2022-09-09T07:18:58.955Z,16.46
2022-09-09T07:19:35.424Z,16.46
2022-09-09T07:20:10.341Z,16.47
2022-09-09T07:20:42.661Z,16.51
2022-09-09T07:21:18.462Z,16.53
2022-09-09T07:21:51.519Z,16.52
2022-09-09T07:22:28.539Z,16.52
2022-09-09T07:23:00.960Z,16.52
2022-09-09T07:23:36.277Z,16.51
2022-09-09T07:24:13.773Z,16.50
2022-09-09T07:24:48.329Z,16.49
2022-09-09T07:25:22.118Z,16.47
2022-09-09T07:25:57.002Z,16.48
2022-09-09T07:26:31.271Z,16.49
2022-09-09T07:27:06.872Z,16.50
2022-09-09T07:27:42.002Z,16.50
2022-09-09T07:28:15.700Z,16.51
2022-09-09T07:28:48.380Z,16.52
2022-09-09T07:29:23.419Z,16.53
2022-09-09T07:29:56.936Z,16.54
2022-09-09T07:30:30.017Z,16.55
2022-09-09T07:31:08.580Z,16.54
2022-09-09T07:31:43.697Z,16.53
2022-09-09T07:32:22.245Z,16.53
2022-09-09T07:32:54.467Z,16.55
2022-09-09T07:33:27.377Z,16.55
2022-09-09T07:34:03.343Z,16.59
2022-09-09T07:34:35.741Z,16.53
2022-09-09T07:35:09.048Z,16.62
2022-09-09T07:35:44.227Z,16.65
2022-09-09T07:36:18.590Z,16.70
2022-09-09T07:36:53.450Z,16.75
2022-09-09T07:37:26.018Z,16.81
2022-09-09T07:37:59.477Z,16.88
2022-09-09T07:38:34.622Z,16.93
2022-09-09T07:39:08.660Z,16.93
2022-09-09T07:39:43.997Z,16.94
2022-09-09T07:40:16.554Z,16.96
2022-09-09T07:40:48.883Z,17.02
2022-09-09T07:41:26.259Z,17.07
2022-09-09T07:41:59.187Z,17.10
2022-09-09T07:42:32.977Z,17.13
2022-09-09T07:43:07.754Z,17.14
2022-09-09T07:43:40.969Z,17.19
2022-09-09T07:44:15.836Z,17.24
2022-09-09T07:44:55.989Z,17.29
2022-09-09T07:45:29.448Z,17.35
2022-09-09T07:46:02.632Z,17.37
2022-09-09T07:46:38.019Z,17.40
2022-09-09T07:47:12.873Z,17.43
2022-09-09T07:47:52.030Z,17.42
2022-09-09T07:48:24.762Z,17.43
2022-09-09T07:49:01.375Z,17.45
2022-09-09T07:49:35.333Z,17.44
2022-09-09T07:50:10.203Z,17.46
2022-09-09T07:50:44.979Z,17.47
2022-09-09T07:51:20.058Z,17.48
2022-09-09T07:51:56.216Z,17.48
2022-09-09T07:52:28.718Z,17.44